Time;durP1;ratioP1;P1;durP2;ratioP2;P2;SDS_P1;SDS_P2;PMS_P1;PMS_P2;Temp;Humidity;BMP_temperature;BMP_pressure;BME280_temperature;BME280_humidity;BME280_pressure;Samples;Min_cycle;Max_cycle;Signal;HPM_P1;HPM_P2
2022/11/04 00:01:36;;;;;;;1.63;1.13;;;10.90;99.90;;;;;;5110435;28;20812;-78
2022/11/04 00:04:02;;;;;;;1.23;1.10;;;10.90;99.90;;;;;;5110465;28;20417;-77
2022/11/04 00:06:27;;;;;;;2.13;0.90;;;10.90;99.90;;;;;;5074900;28;20476;-77
2022/11/04 00:08:55;;;;;;;1.80;1.10;;;11.10;99.90;;;;;;5091997;28;20208;-77
2022/11/04 00:14:08;;;;;;;1.33;1.07;;;10.90;99.90;;;;;;5111146;28;20495;-79
2022/11/04 00:19:18;;;;;;;1.30;0.90;;;10.90;99.90;;;;;;5113094;28;20402;-79
2022/11/04 00:30:02;;;;;;;1.43;1.00;;;10.90;99.90;;;;;;5112356;28;20404;-76
2022/11/04 00:35:12;;;;;;;1.57;1.03;;;10.80;99.90;;;;;;5094579;28;20505;-77
2022/11/04 00:37:42;;;;;;;1.00;0.80;;;10.90;99.90;;;;;;5077225;28;21335;-78
2022/11/04 00:40:11;;;;;;;1.60;1.10;;;10.90;99.90;;;;;;5112723;28;20413;-78
2022/11/04 00:42:36;;;;;;;1.10;1.00;;;10.90;99.90;;;;;;5112069;28;20415;-78
2022/11/04 00:45:03;;;;;;;1.20;1.10;;;11.00;99.90;;;;;;5077055;28;20473;-78
2022/11/04 00:47:28;;;;;;;1.33;1.10;;;10.90;99.90;;;;;;5112416;28;20210;-78
2022/11/04 00:49:54;;;;;;;1.03;0.90;;;10.90;99.90;;;;;;5111653;28;20783;-78
2022/11/04 00:52:20;;;;;;;1.10;0.80;;;11.00;99.90;;;;;;5076335;28;20196;-79
2022/11/04 00:54:45;;;;;;;1.33;1.23;;;10.90;99.90;;;;;;5111205;28;20203;-77
2022/11/04 00:57:12;;;;;;;1.10;1.00;;;11.00;99.90;;;;;;5059861;28;20710;-79
2022/11/04 00:59:38;;;;;;;1.50;1.37;;;11.00;99.90;;;;;;5061088;28;20545;-78
2022/11/04 01:02:04;;;;;;;1.30;0.80;;;11.00;99.90;;;;;;5096276;28;20447;-79
2022/11/04 01:04:30;;;;;;;1.00;0.90;;;11.00;99.90;;;;;;5077429;28;20612;-78
2022/11/04 01:06:56;;;;;;;3.90;1.10;;;11.00;99.90;;;;;;5078111;28;20500;-78
2022/11/04 01:09:22;;;;;;;2.07;1.27;;;11.00;99.90;;;;;;5079054;28;20253;-77
2022/11/04 01:11:47;;;;;;;1.93;1.13;;;10.90;99.90;;;;;;5111602;28;20172;-77
2022/11/04 01:14:14;;;;;;;3.37;0.97;;;11.10;99.90;;;;;;5092476;28;20475;-77
2022/11/04 01:16:39;;;;;;;2.80;1.30;;;11.10;99.90;;;;;;5110205;28;20261;-77
2022/11/04 01:19:06;;;;;;;1.00;0.80;;;10.90;99.90;;;;;;5074889;28;20520;-77
2022/11/04 01:21:31;;;;;;;1.00;0.90;;;10.80;99.90;;;;;;5091283;28;20199;-77
2022/11/04 01:23:59;;;;;;;2.33;1.50;;;10.90;99.90;;;;;;5091685;28;20426;-77
2022/11/04 01:26:26;;;;;;;1.00;0.90;;;10.90;99.90;;;;;;5075308;28;20355;-76
2022/11/04 01:28:53;;;;;;;1.70;1.00;;;11.00;99.90;;;;;;5093065;28;20781;-77
2022/11/04 01:31:24;;;;;;;1.43;0.90;;;11.00;99.90;;;;;;5110387;28;20416;-78
2022/11/04 01:33:51;;;;;;;0.90;0.77;;;11.00;99.90;;;;;;5091149;28;20402;-78
2022/11/04 01:36:18;;;;;;;1.10;0.70;;;11.10;99.90;;;;;;5090996;28;20527;-78
2022/11/04 01:38:44;;;;;;;1.40;1.00;;;11.10;99.90;;;;;;5109507;28;20876;-78
2022/11/04 01:41:17;;;;;;;2.13;0.73;;;11.00;99.90;;;;;;5078266;28;20431;-78
2022/11/04 01:43:47;;;;;;;0.90;0.70;;;11.00;99.90;;;;;;5092337;28;20415;-77
2022/11/04 01:46:32;;;;;;;1.00;0.70;;;10.90;99.90;;;;;;5077769;28;20470;-78
2022/11/04 01:49:08;;;;;;;1.00;0.77;;;10.90;99.90;;;;;;5118948;28;20990;-79
2022/11/04 01:51:36;;;;;;;0.93;0.70;;;10.90;99.90;;;;;;5100874;28;20417;-78
2022/11/04 01:54:05;;;;;;;1.33;0.97;;;10.90;99.90;;;;;;5121654;28;20420;-79
2022/11/04 01:56:32;;;;;;;2.23;1.00;;;10.90;99.90;;;;;;5085115;28;20431;-78
2022/11/04 01:59:02;;;;;;;2.03;0.70;;;10.80;99.90;;;;;;5100150;28;20453;-79
2022/11/04 02:01:28;;;;;;;1.30;0.80;;;11.00;99.90;;;;;;5100467;28;20434;-78
2022/11/04 02:06:44;;;;;;;1.00;0.83;;;10.70;99.90;;;;;;5102893;28;20703;-78
2022/11/04 02:09:10;;;;;;;1.73;0.90;;;10.60;99.90;;;;;;5082559;28;20464;-79
2022/11/04 02:14:20;;;;;;;2.10;1.17;;;10.60;99.90;;;;;;5086917;28;20398;-79
2022/11/04 02:16:48;;;;;;;1.20;0.90;;;10.60;99.90;;;;;;5098430;28;20418;-79
2022/11/04 02:19:52;;;;;;;2.10;0.90;;;10.60;99.90;;;;;;5097530;28;20185;-80
2022/11/04 02:22:33;;;;;;;1.10;0.80;;;10.50;99.90;;;;;;5097762;28;20493;-80
2022/11/04 02:25:15;;;;;;;1.30;0.80;;;10.50;99.90;;;;;;5096960;28;20468;-77
2022/11/04 02:28:19;;;;;;;1.13;0.77;;;10.40;99.90;;;;;;5095691;28;20451;-77
2022/11/04 02:31:06;;;;;;;1.93;1.00;;;10.30;99.90;;;;;;5034499;28;20465;-78
2022/11/04 02:33:39;;;;;;;0.90;0.70;;;10.30;99.90;;;;;;5051273;28;20765;-77
2022/11/04 02:36:16;;;;;;;1.30;0.70;;;10.20;99.90;;;;;;5074550;28;20775;-78
2022/11/04 02:38:59;;;;;;;0.90;0.80;;;10.10;99.90;;;;;;5094681;28;20443;-77
2022/11/04 02:41:55;;;;;;;2.40;0.50;;;10.10;99.90;;;;;;5112694;28;20416;-78
2022/11/04 02:44:30;;;;;;;0.90;0.60;;;10.10;99.90;;;;;;5095692;28;20474;-78
2022/11/04 02:47:05;;;;;;;1.43;1.00;;;10.00;99.90;;;;;;5094630;28;20484;-78
2022/11/04 02:49:43;;;;;;;0.80;0.53;;;9.90;99.90;;;;;;5076671;28;20436;-78
2022/11/04 02:52:34;;;;;;;0.80;0.70;;;9.90;99.90;;;;;;5112042;28;20427;-78
2022/11/04 02:55:05;;;;;;;1.00;0.60;;;9.90;99.90;;;;;;5080216;28;20420;-77
2022/11/04 02:57:34;;;;;;;0.80;0.60;;;9.80;99.90;;;;;;5110781;28;20537;-77
2022/11/04 03:00:09;;;;;;;1.00;0.57;;;9.80;99.90;;;;;;5111832;28;20428;-76
2022/11/04 03:02:37;;;;;;;2.30;0.60;;;9.80;99.90;;;;;;5111700;28;20493;-77
2022/11/04 03:05:06;;;;;;;0.90;0.70;;;9.80;99.90;;;;;;5093322;28;20457;-76
2022/11/04 03:07:35;;;;;;;1.77;0.60;;;9.80;99.90;;;;;;5111814;28;20443;-78
2022/11/04 03:10:05;;;;;;;0.80;0.60;;;9.70;99.90;;;;;;5076309;28;20429;-78
2022/11/04 03:12:41;;;;;;;1.80;0.50;;;9.70;99.90;;;;;;5093708;28;20495;-77
2022/11/04 03:15:16;;;;;;;0.90;0.70;;;9.70;99.90;;;;;;5111629;28;20803;-77
2022/11/04 03:17:53;;;;;;;2.40;0.60;;;9.60;99.90;;;;;;5111855;28;20438;-77
2022/11/04 03:20:26;;;;;;;0.70;0.50;;;9.70;99.90;;;;;;5111786;28;20410;-77
2022/11/04 03:22:58;;;;;;;1.70;0.50;;;9.70;99.90;;;;;;5093935;28;20468;-76
2022/11/04 03:25:31;;;;;;;2.33;0.73;;;9.70;99.90;;;;;;5078541;28;20556;-81
2022/11/04 03:28:22;;;;;;;0.90;0.67;;;9.60;99.90;;;;;;5095007;28;20447;-78
2022/11/04 03:30:52;;;;;;;1.53;0.50;;;9.70;99.90;;;;;;5112822;28;20399;-78
2022/11/04 03:33:23;;;;;;;1.20;0.50;;;9.60;99.90;;;;;;5112855;28;20409;-79
2022/11/04 03:35:49;;;;;;;3.80;0.40;;;9.60;99.90;;;;;;5093174;28;20447;-77
2022/11/04 03:38:15;;;;;;;1.30;0.60;;;9.60;99.90;;;;;;5111206;28;20451;-77
2022/11/04 03:40:41;;;;;;;1.03;0.50;;;9.60;99.90;;;;;;5092958;28;20661;-78
2022/11/04 03:43:14;;;;;;;1.73;0.70;;;9.50;99.90;;;;;;5095838;28;20509;-79
2022/11/04 03:45:41;;;;;;;1.20;0.70;;;9.60;99.90;;;;;;5079234;28;20208;-78
2022/11/04 03:48:07;;;;;;;0.90;0.50;;;9.50;99.90;;;;;;5096225;28;20540;-78
2022/11/04 03:50:42;;;;;;;1.47;0.50;;;9.60;99.90;;;;;;5094196;28;20426;-76
2022/11/04 03:53:10;;;;;;;1.93;0.57;;;9.70;99.90;;;;;;5111719;28;20406;-78
2022/11/04 03:55:57;;;;;;;0.90;0.47;;;9.70;99.90;;;;;;5094386;28;20425;-79
2022/11/04 03:58:57;;;;;;;0.83;0.50;;;9.70;99.90;;;;;;5110931;28;20445;-78
2022/11/04 04:01:59;;;;;;;2.70;0.60;;;9.60;99.90;;;;;;5108675;28;20454;-78
2022/11/04 04:04:57;;;;;;;2.70;1.00;;;9.60;99.90;;;;;;5069540;28;21093;-78
2022/11/04 04:07:40;;;;;;;1.97;1.40;;;9.70;99.90;;;;;;5113642;28;20473;-78
2022/11/04 04:10:38;;;;;;;1.93;0.60;;;9.60;99.90;;;;;;5113152;28;20399;-77
2022/11/04 04:13:15;;;;;;;1.80;0.50;;;9.50;99.90;;;;;;5059451;28;20416;-79
2022/11/04 04:15:54;;;;;;;2.27;0.50;;;9.60;99.90;;;;;;5111479;28;20407;-79
2022/11/04 04:18:29;;;;;;;1.67;0.60;;;9.60;99.90;;;;;;5077000;28;20468;-79
2022/11/04 04:20:58;;;;;;;0.70;0.50;;;9.50;99.90;;;;;;5111275;28;20493;-79
2022/11/04 04:29:02;;;;;;;0.70;0.40;;;9.50;99.90;;;;;;5094830;28;20426;-80
2022/11/04 04:34:34;;;;;;;3.77;0.50;;;9.60;99.90;;;;;;5095087;28;20437;-78
2022/11/04 04:37:08;;;;;;;1.10;0.63;;;9.50;99.90;;;;;;5091658;28;20448;-78
2022/11/04 04:45:31;;;;;;;1.03;0.50;;;9.50;99.90;;;;;;5110300;28;20457;-80
2022/11/04 04:47:57;;;;;;;6.00;0.93;;;9.50;99.90;;;;;;5091455;28;20440;-80
2022/11/04 04:50:29;;;;;;;1.47;0.70;;;9.60;99.90;;;;;;5091576;28;20422;-80
2022/11/04 04:52:57;;;;;;;1.37;0.60;;;9.50;99.90;;;;;;5109849;28;20177;-80
2022/11/04 04:55:23;;;;;;;1.10;0.70;;;9.50;99.90;;;;;;5091250;28;20436;-80
2022/11/04 04:57:48;;;;;;;1.63;0.70;;;9.50;99.90;;;;;;5091388;28;20447;-80
2022/11/04 05:00:17;;;;;;;0.80;0.70;;;9.60;99.90;;;;;;5091610;28;20282;-78
2022/11/04 05:02:43;;;;;;;0.90;0.53;;;9.50;99.90;;;;;;5110128;28;20654;-82
2022/11/04 05:05:10;;;;;;;1.07;0.50;;;9.50;99.90;;;;;;5074790;28;20486;-83
2022/11/04 05:07:36;;;;;;;1.63;0.70;;;9.60;99.90;;;;;;5110711;28;20327;-82
2022/11/04 05:10:02;;;;;;;0.90;0.57;;;9.70;99.90;;;;;;5074800;28;20483;-82
2022/11/04 05:13:24;;;;;;;2.27;0.90;;;9.50;99.90;;;;;;5091285;28;20426;-82
2022/11/04 05:15:16;;;;;;;1.23;0.67;;;9.40;99.90;;;;;;5081195;28;20437;-83
2022/11/04 05:17:42;;;;;;;3.73;0.60;;;9.30;99.90;;;;;;5091217;28;20444;-83
2022/11/04 05:20:08;;;;;;;1.57;0.60;;;9.30;99.90;;;;;;5091883;28;21144;-83
2022/11/04 05:22:34;;;;;;;1.43;0.60;;;9.40;99.90;;;;;;5080939;28;20281;-83
2022/11/04 05:24:59;;;;;;;1.97;0.60;;;9.40;99.90;;;;;;5080952;28;20548;-82
2022/11/04 05:27:25;;;;;;;1.27;0.60;;;9.30;99.90;;;;;;5080024;28;20650;-83
2022/11/04 05:29:50;;;;;;;3.10;0.70;;;9.40;99.90;;;;;;5080203;28;20193;-83
2022/11/04 05:32:16;;;;;;;0.80;0.60;;;9.20;99.90;;;;;;5097798;28;20189;-82
2022/11/04 05:34:42;;;;;;;1.47;0.70;;;9.00;99.90;;;;;;5081132;28;20229;-83
2022/11/04 05:37:07;;;;;;;4.30;0.80;;;9.00;99.90;;;;;;5064463;28;20258;-83
2022/11/04 05:39:33;;;;;;;1.20;0.70;;;9.00;99.90;;;;;;5082153;28;20268;-84
2022/11/04 05:41:59;;;;;;;1.10;0.60;;;8.90;99.90;;;;;;5065251;28;20566;-84
2022/11/04 05:44:25;;;;;;;1.20;0.80;;;9.10;99.90;;;;;;5081457;28;20267;-84
2022/11/04 05:46:51;;;;;;;1.23;0.80;;;8.90;99.90;;;;;;5080351;28;20507;-82
2022/11/04 05:49:16;;;;;;;2.30;0.67;;;9.00;99.90;;;;;;5063670;28;20182;-83
2022/11/04 05:51:43;;;;;;;1.13;0.70;;;9.00;99.90;;;;;;5097209;27;20185;-83
2022/11/04 05:54:09;;;;;;;1.10;0.80;;;9.00;99.90;;;;;;5080453;28;20183;-83
2022/11/04 05:56:35;;;;;;;0.90;0.60;;;9.10;99.90;;;;;;5097321;28;20516;-83
2022/11/04 05:59:00;;;;;;;1.87;0.80;;;9.20;99.90;;;;;;5115441;28;20527;-82
2022/11/04 06:01:34;;;;;;;1.57;0.70;;;9.00;99.90;;;;;;5080386;28;20208;-82
2022/11/04 06:04:01;;;;;;;2.93;0.80;;;9.00;99.90;;;;;;5097842;28;20192;-83
2022/11/04 06:06:30;;;;;;;1.20;0.77;;;9.00;99.90;;;;;;5098105;28;20483;-83
2022/11/04 06:08:56;;;;;;;1.13;0.60;;;9.10;99.90;;;;;;5097817;28;20522;-82
2022/11/04 06:11:22;;;;;;;1.47;0.60;;;9.00;99.90;;;;;;5097669;28;20423;-82
2022/11/04 06:13:49;;;;;;;1.17;0.60;;;9.00;99.90;;;;;;5097415;28;20419;-83
2022/11/04 06:16:14;;;;;;;1.73;0.60;;;8.80;99.90;;;;;;5080321;28;20443;-81
2022/11/04 06:18:40;;;;;;;5.73;0.90;;;8.80;99.90;;;;;;5079695;28;20811;-82
2022/11/04 06:21:20;;;;;;;1.20;0.70;;;8.50;99.90;;;;;;5063375;28;20201;-81
2022/11/04 06:23:47;;;;;;;2.77;1.00;;;8.50;99.90;;;;;;5097710;28;20552;-82
2022/11/04 06:26:14;;;;;;;1.37;0.80;;;8.50;99.90;;;;;;5080660;28;20463;-82
2022/11/04 06:28:39;;;;;;;1.83;0.80;;;8.60;99.90;;;;;;5079997;28;20447;-81
2022/11/04 06:31:07;;;;;;;1.67;0.67;;;8.50;99.90;;;;;;5079941;28;20423;-82
2022/11/04 06:33:33;;;;;;;1.37;0.80;;;8.50;99.90;;;;;;5059529;28;20192;-80
2022/11/04 06:36:01;;;;;;;1.07;0.70;;;8.60;99.90;;;;;;5093331;28;20442;-81
2022/11/04 06:38:29;;;;;;;1.63;0.80;;;8.60;99.90;;;;;;5076431;28;20290;-81
2022/11/04 06:40:55;;;;;;;2.23;0.80;;;8.60;99.90;;;;;;5111319;28;21035;-82
2022/11/04 06:43:21;;;;;;;0.87;0.73;;;8.20;99.90;;;;;;5112106;28;20526;-81
2022/11/04 06:46:02;;;;;;;1.63;0.97;;;8.10;99.90;;;;;;5060237;28;21580;-81
2022/11/04 06:48:30;;;;;;;4.13;0.83;;;7.90;99.90;;;;;;5079942;28;20228;-81
2022/11/04 06:50:57;;;;;;;2.10;0.60;;;7.70;99.90;;;;;;5111730;28;20432;-82
2022/11/04 06:53:23;;;;;;;0.80;0.60;;;8.00;99.90;;;;;;5097316;28;20430;-82
2022/11/04 06:55:50;;;;;;;3.90;0.80;;;8.10;99.90;;;;;;5078499;28;20431;-81
2022/11/04 06:58:15;;;;;;;1.83;0.93;;;8.10;99.90;;;;;;5113855;28;20228;-81
2022/11/04 07:00:41;;;;;;;1.90;0.63;;;8.20;99.90;;;;;;5114184;28;20456;-81
2022/11/04 07:03:08;;;;;;;0.90;0.67;;;8.30;99.90;;;;;;5078450;28;20225;-80
2022/11/04 07:05:34;;;;;;;0.90;0.50;;;8.50;99.90;;;;;;5077596;28;20213;-81
2022/11/04 07:07:59;;;;;;;0.90;0.70;;;8.50;99.90;;;;;;5061404;28;21058;-81
2022/11/04 07:10:25;;;;;;;2.40;0.90;;;8.40;99.90;;;;;;5061526;28;20191;-81
2022/11/04 07:12:51;;;;;;;1.93;0.67;;;8.60;99.90;;;;;;5077904;28;20192;-81
2022/11/04 07:15:17;;;;;;;1.00;0.60;;;8.60;99.90;;;;;;5078283;28;20554;-81
2022/11/04 07:17:43;;;;;;;1.90;0.80;;;8.60;99.90;;;;;;5094219;28;20202;-82
2022/11/04 07:20:12;;;;;;;4.60;0.80;;;8.60;99.90;;;;;;5060535;28;20419;-81
2022/11/04 07:22:38;;;;;;;0.90;0.80;;;8.80;99.90;;;;;;5076490;28;21149;-81
2022/11/04 07:25:04;;;;;;;3.70;0.60;;;8.80;99.90;;;;;;5076104;28;20462;-82
2022/11/04 07:27:30;;;;;;;2.93;0.80;;;8.80;99.90;;;;;;5092498;28;20498;-82
2022/11/04 07:29:55;;;;;;;0.97;0.70;;;8.80;99.90;;;;;;5092663;28;20424;-82
2022/11/04 07:32:21;;;;;;;1.20;0.60;;;8.80;99.90;;;;;;5075391;28;20196;-81
2022/11/04 07:34:47;;;;;;;1.00;0.80;;;8.60;99.90;;;;;;5058543;28;20186;-81
2022/11/04 07:37:12;;;;;;;1.10;0.70;;;8.70;99.90;;;;;;5075103;28;20216;-81
2022/11/04 07:39:38;;;;;;;1.60;0.90;;;8.80;99.90;;;;;;5058452;28;20514;-82
2022/11/04 07:42:07;;;;;;;1.10;0.67;;;8.70;99.90;;;;;;5075224;28;20186;-81
2022/11/04 07:44:32;;;;;;;2.60;0.60;;;8.70;99.90;;;;;;5075178;28;20189;-82
2022/11/04 07:46:58;;;;;;;2.30;1.13;;;8.80;99.90;;;;;;5092092;28;20476;-82
2022/11/04 07:49:24;;;;;;;4.63;0.80;;;8.70;99.90;;;;;;5076222;28;20191;-82
2022/11/04 07:51:50;;;;;;;0.80;0.70;;;8.80;99.90;;;;;;5092109;28;20183;-82
2022/11/04 07:54:16;;;;;;;1.33;0.63;;;8.90;99.90;;;;;;5091916;28;20511;-82
2022/11/04 07:56:41;;;;;;;10.50;0.93;;;9.00;99.90;;;;;;5111027;28;20515;-81
2022/11/04 07:59:07;;;;;;;2.50;0.90;;;9.00;99.90;;;;;;5075277;28;20190;-81
2022/11/04 08:01:33;;;;;;;1.57;0.70;;;9.00;99.90;;;;;;5092883;28;20206;-82
2022/11/04 08:03:59;;;;;;;1.20;0.63;;;9.00;99.90;;;;;;5075091;28;20247;-81
2022/11/04 08:06:24;;;;;;;3.27;1.23;;;9.00;99.90;;;;;;5091801;28;20504;-82
2022/11/04 08:08:52;;;;;;;2.40;0.90;;;9.00;99.90;;;;;;5092035;28;20234;-82
2022/11/04 08:11:22;;;;;;;1.77;0.80;;;9.00;99.90;;;;;;5075242;28;20210;-81
2022/11/04 08:13:47;;;;;;;2.00;0.87;;;9.10;99.90;;;;;;5110333;28;20922;-81
2022/11/04 08:21:34;;;;;;;3.70;0.80;;;9.40;99.90;;;;;;5070148;28;20496;-73
2022/11/04 08:24:02;;;;;;;1.43;0.80;;;9.50;99.90;;;;;;5071678;28;20432;-72
2022/11/04 08:26:28;;;;;;;0.97;0.70;;;9.50;99.90;;;;;;5071888;28;20660;-72
2022/11/04 08:28:53;;;;;;;2.50;0.80;;;9.60;99.90;;;;;;5079390;22;20588;-73
2022/11/04 08:31:24;;;;;;;2.13;0.93;;;9.70;99.90;;;;;;5070962;28;20262;-72
2022/11/04 08:33:50;;;;;;;1.80;0.80;;;9.70;99.90;;;;;;5069474;28;20224;-73
2022/11/04 08:36:22;;;;;;;0.77;0.60;;;9.70;99.90;;;;;;5051599;28;20422;-72
2022/11/04 08:38:48;;;;;;;1.37;0.73;;;9.70;99.90;;;;;;5083569;22;20480;-73
2022/11/04 08:41:16;;;;;;;2.90;0.87;;;9.70;99.90;;;;;;5091986;28;20791;-72
2022/11/04 08:43:41;;;;;;;2.30;0.90;;;9.70;99.90;;;;;;5073497;28;20517;-72
2022/11/04 08:46:09;;;;;;;1.43;0.60;;;9.70;99.90;;;;;;5091824;28;20575;-72
2022/11/04 08:51:04;;;;;;;2.17;0.90;;;9.90;99.90;;;;;;5069423;28;20465;-72
2022/11/04 08:53:30;;;;;;;3.23;1.23;;;9.90;99.90;;;;;;5052905;28;20456;-72
2022/11/04 08:55:55;;;;;;;2.70;0.70;;;9.70;99.90;;;;;;5070362;28;20410;-72
2022/11/04 08:58:23;;;;;;;2.03;1.00;;;9.70;99.90;;;;;;5079610;22;20723;-73
2022/11/04 09:00:49;;;;;;;1.33;1.00;;;9.60;99.90;;;;;;5071395;28;20652;-72
2022/11/04 09:03:16;;;;;;;3.13;1.07;;;9.70;99.90;;;;;;5053312;28;20437;-72
2022/11/04 09:05:46;;;;;;;1.20;1.00;;;9.70;99.90;;;;;;5071273;28;20986;-73
2022/11/04 09:10:41;;;;;;;2.80;0.70;;;9.70;99.90;;;;;;5069738;28;20473;-73
2022/11/04 09:13:09;;;;;;;2.40;0.80;;;9.70;99.90;;;;;;5052869;28;20494;-73
2022/11/04 09:15:35;;;;;;;1.10;0.90;;;9.70;99.90;;;;;;5071149;28;20426;-73
2022/11/04 09:20:28;;;;;;;4.43;1.27;;;9.80;99.90;;;;;;5087404;28;20283;-73
2022/11/04 09:22:55;;;;;;;2.90;0.87;;;9.80;99.90;;;;;;5072350;28;20413;-73
2022/11/04 09:25:20;;;;;;;3.50;0.80;;;9.90;99.90;;;;;;5072816;28;20230;-72
2022/11/04 09:30:14;;;;;;;1.93;0.70;;;9.90;99.90;;;;;;5069742;28;20220;-74
2022/11/04 09:32:40;;;;;;;1.00;0.73;;;10.00;99.90;;;;;;5070886;28;20411;-73
2022/11/04 09:35:06;;;;;;;2.20;0.90;;;10.00;99.90;;;;;;5070952;28;20431;-72
2022/11/04 09:40:00;;;;;;;1.97;0.80;;;9.90;99.90;;;;;;5069204;28;20462;-73
2022/11/04 09:42:50;;;;;;;1.93;1.00;;;10.00;99.90;;;;;;5052532;28;20477;-73
2022/11/04 09:45:18;;;;;;;3.40;1.40;;;10.20;99.90;;;;;;5032474;28;20732;-72
2022/11/04 09:50:49;;;;;;;0.87;0.87;;;10.20;99.90;;;;;;5069549;28;20478;-73
2022/11/04 09:53:32;;;;;;;2.40;0.80;;;10.20;99.90;;;;;;5068303;28;20946;-73
2022/11/04 09:56:05;;;;;;;3.57;1.10;;;10.20;99.90;;;;;;5052819;28;20415;-72
2022/11/04 10:03:57;;;;;;;1.30;0.80;;;10.50;99.90;;;;;;5076707;22;20490;-72
2022/11/04 10:12:00;;;;;;;3.60;1.00;;;10.70;99.90;;;;;;5073005;28;20866;-72
2022/11/04 10:14:44;;;;;;;2.23;0.87;;;10.80;99.90;;;;;;5073568;28;20419;-73
2022/11/04 10:20:15;;;;;;;1.10;0.77;;;11.00;99.90;;;;;;5091855;28;20468;-74
2022/11/04 10:23:20;;;;;;;3.03;1.07;;;11.10;99.90;;;;;;5094453;28;20411;-72
2022/11/04 10:26:13;;;;;;;1.97;0.80;;;11.00;99.90;;;;;;5059498;28;20457;-73
2022/11/04 10:31:12;;;;;;;2.37;0.80;;;11.40;99.90;;;;;;5072906;28;20525;-73
2022/11/04 10:33:43;;;;;;;2.10;1.17;;;11.80;99.90;;;;;;5056630;28;20442;-73
2022/11/04 10:36:11;;;;;;;5.13;0.83;;;12.00;99.90;;;;;;5074022;28;20412;-72
2022/11/04 10:38:50;;;;;;;4.90;1.33;;;12.30;99.90;;;;;;5073836;22;20491;-72
2022/11/04 10:41:25;;;;;;;2.07;0.87;;;12.60;99.90;;;;;;5093491;28;20468;-73
2022/11/04 10:43:55;;;;;;;5.10;1.20;;;13.00;99.90;;;;;;5093081;28;20927;-73
2022/11/04 10:49:50;;;;;;;4.87;1.00;;;13.40;99.90;;;;;;5031960;28;20465;-73
2022/11/04 10:52:16;;;;;;;2.70;1.10;;;13.50;99.90;;;;;;5033624;28;20421;-72
2022/11/04 10:54:44;;;;;;;6.27;0.97;;;13.20;99.90;;;;;;5031874;28;20508;-73
2022/11/04 10:59:49;;;;;;;3.70;0.90;;;12.80;99.90;;;;;;5071742;28;20474;-72
2022/11/04 11:02:15;;;;;;;5.80;0.90;;;12.90;99.90;;;;;;5071714;28;20477;-73
2022/11/04 11:04:43;;;;;;;5.63;1.43;;;12.40;99.90;;;;;;5073084;28;20436;-73
2022/11/04 11:07:11;;;;;;;3.27;0.80;;;12.30;99.90;;;;;;5072933;28;20257;-74
2022/11/04 11:12:12;;;;;;;4.30;0.87;;;12.60;99.90;;;;;;5052005;28;20479;-73
2022/11/04 11:14:40;;;;;;;6.03;1.20;;;12.80;99.90;;;;;;5053484;28;20425;-73
2022/11/04 11:19:57;;;;;;;5.20;0.90;;;13.10;99.90;;;;;;5070850;28;20894;-73
2022/11/04 11:22:35;;;;;;;1.97;0.73;;;13.00;99.90;;;;;;5073069;28;20412;-72
2022/11/04 11:25:21;;;;;;;6.50;1.50;;;13.00;99.90;;;;;;5071547;28;20428;-72
2022/11/04 11:30:27;;;;;;;5.17;1.10;;;12.80;99.90;;;;;;5090199;28;20457;-72
2022/11/04 11:32:56;;;;;;;62.13;26.27;;;12.80;99.90;;;;;;5092859;28;20399;-72
2022/11/04 11:35:26;;;;;;;78.80;21.43;;;12.70;99.90;;;;;;5093130;28;20400;-73
2022/11/04 11:40:24;;;;;;;12.67;3.73;;;12.80;99.90;;;;;;5051557;28;20582;-72
2022/11/04 11:42:51;;;;;;;4.30;1.10;;;12.90;99.90;;;;;;5034762;28;20432;-72
2022/11/04 11:45:17;;;;;;;6.50;1.20;;;12.70;99.90;;;;;;5018191;28;20420;-72
2022/11/04 11:47:43;;;;;;;5.70;0.80;;;12.60;99.90;;;;;;5045094;23;20479;-72
2022/11/04 11:50:31;;;;;;;6.80;1.30;;;12.70;99.90;;;;;;5072898;28;20413;-72
2022/11/04 11:53:24;;;;;;;5.20;1.40;;;12.70;99.90;;;;;;5072435;28;20171;-72
2022/11/04 11:56:08;;;;;;;8.00;1.40;;;12.80;99.90;;;;;;5069928;28;20929;-72
2022/11/04 12:01:18;;;;;;;4.63;1.00;;;12.70;99.90;;;;;;5070609;28;20471;-73
2022/11/04 12:03:46;;;;;;;3.30;0.97;;;12.80;99.90;;;;;;5054215;28;20847;-73
2022/11/04 12:06:39;;;;;;;5.50;1.00;;;12.60;99.90;;;;;;5053754;28;20554;-72
2022/11/04 12:09:25;;;;;;;4.13;0.90;;;12.60;99.90;;;;;;5080065;22;20503;-72
2022/11/04 12:12:09;;;;;;;3.23;1.00;;;12.50;99.90;;;;;;5071812;28;20423;-73
2022/11/04 12:14:57;;;;;;;4.57;0.90;;;12.50;99.90;;;;;;5071491;28;20461;-73
2022/11/04 12:20:22;;;;;;;8.43;1.43;;;12.50;99.90;;;;;;5070523;28;21196;-73
2022/11/04 12:23:07;;;;;;;1.97;0.90;;;12.50;99.90;;;;;;5052615;28;20777;-72
2022/11/04 12:26:12;;;;;;;5.50;0.80;;;12.40;99.90;;;;;;5068352;28;20449;-73
2022/11/04 12:29:12;;;;;;;5.87;1.10;;;12.40;99.90;;;;;;5056215;28;20465;-72
2022/11/04 12:32:17;;;;;;;1.47;0.90;;;12.40;99.90;;;;;;4985448;28;20853;-72
2022/11/04 12:34:51;;;;;;;7.53;1.20;;;12.50;99.90;;;;;;5030928;28;20975;-73
2022/11/04 12:37:20;;;;;;;2.70;1.13;;;12.50;99.90;;;;;;5068092;28;20424;-73
2022/11/04 12:40:14;;;;;;;7.67;1.20;;;12.40;99.90;;;;;;5049757;28;20441;-72
2022/11/04 12:42:55;;;;;;;3.53;1.10;;;12.30;99.90;;;;;;5067981;28;20465;-72
2022/11/04 12:45:45;;;;;;;4.70;1.00;;;12.30;99.90;;;;;;5067937;28;20465;-73
2022/11/04 12:48:26;;;;;;;2.40;1.00;;;12.50;99.90;;;;;;5067711;28;20415;-72
2022/11/04 12:51:24;;;;;;;7.33;0.90;;;12.60;99.90;;;;;;5049326;28;20513;-72
2022/11/04 12:53:58;;;;;;;3.10;0.87;;;12.60;99.90;;;;;;5067512;28;20462;-72
2022/11/04 12:56:37;;;;;;;3.07;1.00;;;12.70;99.90;;;;;;5067501;28;20477;-72
2022/11/04 12:59:34;;;;;;;6.43;1.07;;;12.70;99.90;;;;;;5067495;28;20414;-73
2022/11/04 13:02:29;;;;;;;2.60;1.10;;;12.70;99.90;;;;;;5067249;28;20420;-72
2022/11/04 13:05:08;;;;;;;3.30;1.07;;;12.70;99.90;;;;;;5066795;28;20467;-72
2022/11/04 13:08:07;;;;;;;2.30;1.10;;;12.70;99.90;;;;;;5048615;28;20435;-73
2022/11/04 13:10:38;;;;;;;6.40;1.33;;;12.80;99.90;;;;;;5035539;28;20486;-73
2022/11/04 13:13:06;;;;;;;4.07;1.37;;;12.80;99.90;;;;;;5066682;28;20437;-72
2022/11/04 13:15:50;;;;;;;3.83;1.40;;;12.90;99.90;;;;;;5066807;28;20493;-73
2022/11/04 13:18:19;;;;;;;5.83;1.40;;;12.90;99.90;;;;;;5066493;28;20827;-72
2022/11/04 13:21:14;;;;;;;4.43;1.30;;;13.00;99.90;;;;;;5066631;28;20864;-72
2022/11/04 13:23:56;;;;;;;9.83;1.33;;;13.00;99.90;;;;;;5048393;28;20456;-72
2022/11/04 13:26:23;;;;;;;4.80;1.13;;;13.10;99.90;;;;;;5066562;28;20544;-72
2022/11/04 13:28:58;;;;;;;3.13;1.13;;;13.10;99.90;;;;;;5066650;28;20478;-72
2022/11/04 13:32:09;;;;;;;5.50;1.50;;;13.10;99.90;;;;;;5048583;28;20878;-72
2022/11/04 13:35:07;;;;;;;3.83;1.20;;;13.20;99.90;;;;;;5022216;28;20585;-72
2022/11/04 13:37:41;;;;;;;6.37;1.17;;;13.30;99.90;;;;;;5066405;28;20417;-72
2022/11/04 13:40:25;;;;;;;4.63;1.30;;;13.30;99.90;;;;;;5066794;28;20428;-72
2022/11/04 13:43:48;;;;;;;3.00;1.30;;;13.30;99.90;;;;;;5050586;28;20485;-73
2022/11/04 13:45:56;;;;;;;4.50;1.33;;;13.20;99.90;;;;;;5062676;28;20460;-72
2022/11/04 13:48:26;;;;;;;2.07;1.00;;;13.10;99.90;;;;;;5052399;28;20923;-73
2022/11/04 13:51:01;;;;;;;9.20;4.50;;;13.20;99.90;;;;;;5052146;28;20423;-73
2022/11/04 13:53:43;;;;;;;6.10;2.17;;;13.20;99.90;;;;;;5070320;28;20440;-72
2022/11/04 13:56:23;;;;;;;10.53;3.93;;;13.30;99.90;;;;;;5070332;28;20424;-72
2022/11/04 13:58:53;;;;;;;7.57;3.33;;;13.30;99.90;;;;;;5052246;28;20567;-72
2022/11/04 14:01:22;;;;;;;12.83;1.50;;;13.40;99.90;;;;;;5035638;28;20436;-73
2022/11/04 14:04:22;;;;;;;10.13;2.90;;;13.50;99.90;;;;;;5051892;28;20456;-74
2022/11/04 14:07:02;;;;;;;6.43;1.53;;;13.50;99.90;;;;;;5064159;28;20571;-73
2022/11/04 14:09:28;;;;;;;3.90;1.03;;;13.50;99.90;;;;;;5070493;28;21004;-74
2022/11/04 14:12:18;;;;;;;7.57;1.13;;;13.40;99.90;;;;;;5070238;28;20418;-73
2022/11/04 14:14:49;;;;;;;7.77;1.83;;;13.40;99.90;;;;;;5070158;28;20207;-72
2022/11/04 14:17:33;;;;;;;6.00;0.97;;;13.30;99.90;;;;;;5070042;28;20416;-73
2022/11/04 14:20:03;;;;;;;6.67;1.53;;;13.40;99.90;;;;;;5070294;28;20428;-73
2022/11/04 14:22:36;;;;;;;3.80;1.00;;;13.30;99.90;;;;;;5070157;28;20504;-72
2022/11/04 14:25:17;;;;;;;3.30;0.77;;;13.20;99.90;;;;;;5071023;28;20882;-73
2022/11/04 14:27:44;;;;;;;2.97;1.20;;;13.30;99.90;;;;;;5071302;28;20950;-73
2022/11/04 14:30:45;;;;;;;8.70;1.27;;;13.30;99.90;;;;;;5070850;28;20408;-72
2022/11/04 14:33:33;;;;;;;4.60;1.00;;;13.30;99.90;;;;;;5070247;28;20424;-73
2022/11/04 14:36:20;;;;;;;4.23;1.43;;;13.30;99.90;;;;;;5051885;28;20541;-73
2022/11/04 14:39:00;;;;;;;27.30;9.80;;;13.20;99.90;;;;;;5070113;28;20923;-73
2022/11/04 14:41:50;;;;;;;7.83;3.90;;;13.20;99.90;;;;;;5052260;28;20417;-73
2022/11/04 14:44:24;;;;;;;4.80;2.83;;;13.20;99.90;;;;;;5069859;28;20866;-73
2022/11/04 14:46:55;;;;;;;66.40;23.03;;;13.20;99.90;;;;;;5069846;28;20979;-73
2022/11/04 14:49:31;;;;;;;37.13;13.67;;;13.20;99.90;;;;;;5069663;28;20413;-72
2022/11/04 14:51:57;;;;;;;6.17;2.27;;;13.20;99.90;;;;;;5069474;28;20446;-73
2022/11/04 14:54:29;;;;;;;8.73;1.57;;;13.00;99.90;;;;;;5068290;28;20433;-73